sensor_id;sensor_type;location;lat;lon;timestamp;P1;durP1;ratioP1;P2;durP2;ratioP2
44120;SDS011;29783;52.504;13.478;2023-07-28T00:01:14;1.45;;;0.70;;
44120;SDS011;29783;52.504;13.478;2023-07-28T00:03:39;1.77;;;0.73;;
44120;SDS011;29783;52.504;13.478;2023-07-28T00:06:06;1.48;;;0.50;;
44120;SDS011;29783;52.504;13.478;2023-07-28T00:08:32;1.48;;;0.70;;
44120;SDS011;29783;52.504;13.478;2023-07-28T00:10:58;1.60;;;0.70;;
44120;SDS011;29783;52.504;13.478;2023-07-28T00:13:23;0.90;;;0.90;;
44120;SDS011;29783;52.504;13.478;2023-07-28T00:15:51;1.80;;;1.00;;
44120;SDS011;29783;52.504;13.478;2023-07-28T00:18:18;1.00;;;0.90;;
44120;SDS011;29783;52.504;13.478;2023-07-28T00:20:46;1.08;;;1.00;;
44120;SDS011;29783;52.504;13.478;2023-07-28T00:23:11;3.72;;;1.08;;
44120;SDS011;29783;52.504;13.478;2023-07-28T00:25:37;5.88;;;1.40;;
44120;SDS011;29783;52.504;13.478;2023-07-28T00:28:03;6.32;;;1.40;;
44120;SDS011;29783;52.504;13.478;2023-07-28T00:30:30;5.00;;;1.50;;
44120;SDS011;29783;52.504;13.478;2023-07-28T00:32:56;2.88;;;1.33;;
44120;SDS011;29783;52.504;13.478;2023-07-28T00:35:23;2.28;;;1.90;;
44120;SDS011;29783;52.504;13.478;2023-07-28T00:37:48;3.05;;;2.03;;
44120;SDS011;29783;52.504;13.478;2023-07-28T00:40:17;3.65;;;2.10;;
44120;SDS011;29783;52.504;13.478;2023-07-28T00:42:42;3.00;;;2.15;;
44120;SDS011;29783;52.504;13.478;2023-07-28T00:45:10;2.47;;;2.28;;
44120;SDS011;29783;52.504;13.478;2023-07-28T00:47:35;3.17;;;2.85;;
44120;SDS011;29783;52.504;13.478;2023-07-28T00:50:03;2.97;;;2.60;;
44120;SDS011;29783;52.504;13.478;2023-07-28T00:52:29;4.20;;;2.72;;
44120;SDS011;29783;52.504;13.478;2023-07-28T00:54:55;7.07;;;2.70;;
44120;SDS011;29783;52.504;13.478;2023-07-28T00:57:21;3.17;;;2.67;;
44120;SDS011;29783;52.504;13.478;2023-07-28T00:59:47;6.03;;;2.67;;
44120;SDS011;29783;52.504;13.478;2023-07-28T01:02:14;5.72;;;2.45;;
44120;SDS011;29783;52.504;13.478;2023-07-28T01:04:39;4.38;;;2.65;;
44120;SDS011;29783;52.504;13.478;2023-07-28T01:07:13;5.85;;;2.92;;
44120;SDS011;29783;52.504;13.478;2023-07-28T01:09:50;4.18;;;2.80;;
44120;SDS011;29783;52.504;13.478;2023-07-28T01:12:22;2.97;;;2.25;;
44120;SDS011;29783;52.504;13.478;2023-07-28T01:14:49;6.05;;;2.25;;
44120;SDS011;29783;52.504;13.478;2023-07-28T01:17:15;5.38;;;2.22;;
44120;SDS011;29783;52.504;13.478;2023-07-28T01:19:41;3.03;;;2.10;;
44120;SDS011;29783;52.504;13.478;2023-07-28T01:22:31;7.88;;;1.73;;
44120;SDS011;29783;52.504;13.478;2023-07-28T01:27:39;5.80;;;1.90;;
44120;SDS011;29783;52.504;13.478;2023-07-28T01:30:07;6.60;;;1.65;;
44120;SDS011;29783;52.504;13.478;2023-07-28T01:32:35;2.55;;;1.70;;
44120;SDS011;29783;52.504;13.478;2023-07-28T01:35:02;7.80;;;1.50;;
44120;SDS011;29783;52.504;13.478;2023-07-28T01:37:29;5.88;;;1.73;;
44120;SDS011;29783;52.504;13.478;2023-07-28T01:39:57;8.18;;;2.00;;
44120;SDS011;29783;52.504;13.478;2023-07-28T01:42:23;4.10;;;2.00;;
44120;SDS011;29783;52.504;13.478;2023-07-28T01:44:49;5.80;;;1.85;;
44120;SDS011;29783;52.504;13.478;2023-07-28T02:14:59;3.30;;;2.63;;
44120;SDS011;29783;52.504;13.478;2023-07-28T02:17:25;8.15;;;2.75;;
44120;SDS011;29783;52.504;13.478;2023-07-28T02:19:51;7.75;;;2.58;;
44120;SDS011;29783;52.504;13.478;2023-07-28T02:22:16;3.95;;;2.88;;
44120;SDS011;29783;52.504;13.478;2023-07-28T02:24:43;7.35;;;3.00;;
44120;SDS011;29783;52.504;13.478;2023-07-28T02:27:09;7.35;;;2.95;;
44120;SDS011;29783;52.504;13.478;2023-07-28T02:29:34;5.85;;;3.15;;
44120;SDS011;29783;52.504;13.478;2023-07-28T02:32:00;4.72;;;3.20;;
44120;SDS011;29783;52.504;13.478;2023-07-28T02:34:26;5.60;;;3.28;;
44120;SDS011;29783;52.504;13.478;2023-07-28T02:36:52;7.22;;;3.50;;
44120;SDS011;29783;52.504;13.478;2023-07-28T02:39:17;6.32;;;3.75;;
44120;SDS011;29783;52.504;13.478;2023-07-28T02:41:44;5.82;;;3.60;;
44120;SDS011;29783;52.504;13.478;2023-07-28T02:44:13;10.13;;;3.97;;
44120;SDS011;29783;52.504;13.478;2023-07-28T02:46:39;6.57;;;3.75;;
44120;SDS011;29783;52.504;13.478;2023-07-28T02:49:06;6.40;;;4.00;;
44120;SDS011;29783;52.504;13.478;2023-07-28T02:51:32;12.25;;;4.03;;
44120;SDS011;29783;52.504;13.478;2023-07-28T02:54:01;8.80;;;4.00;;
44120;SDS011;29783;52.504;13.478;2023-07-28T02:56:28;6.78;;;4.22;;
44120;SDS011;29783;52.504;13.478;2023-07-28T02:58:59;7.70;;;4.03;;
44120;SDS011;29783;52.504;13.478;2023-07-28T03:01:25;9.85;;;4.35;;
44120;SDS011;29783;52.504;13.478;2023-07-28T03:03:51;5.13;;;4.07;;
44120;SDS011;29783;52.504;13.478;2023-07-28T03:06:17;9.23;;;5.70;;
44120;SDS011;29783;52.504;13.478;2023-07-28T03:08:43;6.38;;;4.28;;
44120;SDS011;29783;52.504;13.478;2023-07-28T03:11:09;6.18;;;4.10;;
44120;SDS011;29783;52.504;13.478;2023-07-28T03:13:38;6.20;;;4.10;;
44120;SDS011;29783;52.504;13.478;2023-07-28T03:16:07;6.18;;;4.40;;
44120;SDS011;29783;52.504;13.478;2023-07-28T03:18:32;6.20;;;4.47;;
44120;SDS011;29783;52.504;13.478;2023-07-28T03:20:58;6.82;;;3.88;;
44120;SDS011;29783;52.504;13.478;2023-07-28T03:23:25;7.28;;;4.50;;
44120;SDS011;29783;52.504;13.478;2023-07-28T03:25:53;12.43;;;4.07;;
44120;SDS011;29783;52.504;13.478;2023-07-28T03:28:19;7.00;;;4.20;;
44120;SDS011;29783;52.504;13.478;2023-07-28T03:30:45;6.00;;;4.25;;
44120;SDS011;29783;52.504;13.478;2023-07-28T03:33:11;6.55;;;4.03;;
44120;SDS011;29783;52.504;13.478;2023-07-28T03:35:37;6.05;;;3.95;;
44120;SDS011;29783;52.504;13.478;2023-07-28T03:38:03;10.82;;;4.75;;
44120;SDS011;29783;52.504;13.478;2023-07-28T03:40:30;5.07;;;4.20;;
44120;SDS011;29783;52.504;13.478;2023-07-28T03:42:56;6.28;;;4.75;;
44120;SDS011;29783;52.504;13.478;2023-07-28T03:45:22;6.03;;;4.20;;
44120;SDS011;29783;52.504;13.478;2023-07-28T03:57:20;8.27;;;4.72;;
44120;SDS011;29783;52.504;13.478;2023-07-28T03:59:47;7.80;;;4.72;;
44120;SDS011;29783;52.504;13.478;2023-07-28T04:02:13;6.18;;;4.35;;
44120;SDS011;29783;52.504;13.478;2023-07-28T04:04:38;5.80;;;4.60;;
44120;SDS011;29783;52.504;13.478;2023-07-28T04:07:05;6.80;;;4.30;;
44120;SDS011;29783;52.504;13.478;2023-07-28T04:09:31;5.50;;;4.47;;
44120;SDS011;29783;52.504;13.478;2023-07-28T04:11:57;8.30;;;5.38;;
44120;SDS011;29783;52.504;13.478;2023-07-28T04:14:22;5.88;;;5.03;;
44120;SDS011;29783;52.504;13.478;2023-07-28T04:16:49;7.63;;;4.85;;
44120;SDS011;29783;52.504;13.478;2023-07-28T04:19:15;7.50;;;5.35;;
44120;SDS011;29783;52.504;13.478;2023-07-28T04:21:42;6.55;;;4.95;;
44120;SDS011;29783;52.504;13.478;2023-07-28T04:24:08;5.95;;;4.95;;
44120;SDS011;29783;52.504;13.478;2023-07-28T04:26:36;8.82;;;5.25;;
44120;SDS011;29783;52.504;13.478;2023-07-28T04:29:09;7.68;;;4.75;;
44120;SDS011;29783;52.504;13.478;2023-07-28T04:31:35;8.55;;;5.00;;
44120;SDS011;29783;52.504;13.478;2023-07-28T04:34:01;6.10;;;5.18;;
44120;SDS011;29783;52.504;13.478;2023-07-28T04:36:28;6.28;;;5.18;;
44120;SDS011;29783;52.504;13.478;2023-07-28T04:38:54;7.60;;;4.70;;
44120;SDS011;29783;52.504;13.478;2023-07-28T04:41:19;7.85;;;5.13;;
44120;SDS011;29783;52.504;13.478;2023-07-28T04:43:48;7.40;;;4.60;;
44120;SDS011;29783;52.504;13.478;2023-07-28T04:46:14;5.00;;;4.05;;
44120;SDS011;29783;52.504;13.478;2023-07-28T04:48:39;5.97;;;3.90;;
44120;SDS011;29783;52.504;13.478;2023-07-28T04:51:05;5.00;;;4.22;;
44120;SDS011;29783;52.504;13.478;2023-07-28T04:53:31;5.55;;;3.97;;
44120;SDS011;29783;52.504;13.478;2023-07-28T04:55:58;5.75;;;4.47;;
44120;SDS011;29783;52.504;13.478;2023-07-28T04:58:24;4.90;;;4.38;;
44120;SDS011;29783;52.504;13.478;2023-07-28T05:00:51;7.10;;;3.60;;
44120;SDS011;29783;52.504;13.478;2023-07-28T05:03:17;6.85;;;4.70;;
44120;SDS011;29783;52.504;13.478;2023-07-28T05:05:44;8.32;;;5.13;;
44120;SDS011;29783;52.504;13.478;2023-07-28T05:08:11;9.35;;;5.13;;
44120;SDS011;29783;52.504;13.478;2023-07-28T05:10:37;9.80;;;5.80;;
44120;SDS011;29783;52.504;13.478;2023-07-28T05:13:02;6.30;;;4.70;;
44120;SDS011;29783;52.504;13.478;2023-07-28T05:15:29;6.40;;;4.05;;
44120;SDS011;29783;52.504;13.478;2023-07-28T05:17:55;7.05;;;4.95;;
44120;SDS011;29783;52.504;13.478;2023-07-28T05:20:21;6.05;;;4.47;;
44120;SDS011;29783;52.504;13.478;2023-07-28T05:22:47;6.15;;;4.78;;
44120;SDS011;29783;52.504;13.478;2023-07-28T05:25:12;15.55;;;4.13;;
44120;SDS011;29783;52.504;13.478;2023-07-28T05:27:39;5.18;;;4.32;;
44120;SDS011;29783;52.504;13.478;2023-07-28T05:30:06;7.57;;;4.95;;
44120;SDS011;29783;52.504;13.478;2023-07-28T05:32:34;6.50;;;4.85;;
44120;SDS011;29783;52.504;13.478;2023-07-28T05:35:00;7.53;;;4.68;;
44120;SDS011;29783;52.504;13.478;2023-07-28T05:37:25;4.97;;;4.43;;
44120;SDS011;29783;52.504;13.478;2023-07-28T05:39:51;9.40;;;5.00;;
44120;SDS011;29783;52.504;13.478;2023-07-28T05:42:18;5.97;;;4.50;;
44120;SDS011;29783;52.504;13.478;2023-07-28T05:44:44;17.15;;;4.55;;
44120;SDS011;29783;52.504;13.478;2023-07-28T05:59:55;8.35;;;4.45;;
44120;SDS011;29783;52.504;13.478;2023-07-28T06:02:22;8.63;;;4.30;;
44120;SDS011;29783;52.504;13.478;2023-07-28T06:04:48;5.03;;;4.43;;
44120;SDS011;29783;52.504;13.478;2023-07-28T06:07:14;5.97;;;4.32;;
44120;SDS011;29783;52.504;13.478;2023-07-28T06:09:39;9.18;;;4.22;;
44120;SDS011;29783;52.504;13.478;2023-07-28T06:12:06;3.85;;;3.30;;
44120;SDS011;29783;52.504;13.478;2023-07-28T06:14:33;6.15;;;3.58;;
44120;SDS011;29783;52.504;13.478;2023-07-28T06:17:00;6.30;;;4.38;;
44120;SDS011;29783;52.504;13.478;2023-07-28T06:19:26;9.75;;;4.22;;
44120;SDS011;29783;52.504;13.478;2023-07-28T06:21:53;4.82;;;4.25;;
44120;SDS011;29783;52.504;13.478;2023-07-28T06:24:19;6.65;;;4.45;;
44120;SDS011;29783;52.504;13.478;2023-07-28T06:26:45;5.78;;;4.80;;
44120;SDS011;29783;52.504;13.478;2023-07-28T06:29:11;4.80;;;4.07;;
44120;SDS011;29783;52.504;13.478;2023-07-28T06:31:36;13.27;;;4.88;;
44120;SDS011;29783;52.504;13.478;2023-07-28T06:34:02;8.85;;;4.10;;
44120;SDS011;29783;52.504;13.478;2023-07-28T06:36:29;5.45;;;4.95;;
44120;SDS011;29783;52.504;13.478;2023-07-28T06:38:54;8.30;;;7.05;;
44120;SDS011;29783;52.504;13.478;2023-07-28T06:41:20;6.15;;;5.47;;
44120;SDS011;29783;52.504;13.478;2023-07-28T06:43:48;8.07;;;4.70;;
44120;SDS011;29783;52.504;13.478;2023-07-28T06:46:14;5.22;;;4.70;;
44120;SDS011;29783;52.504;13.478;2023-07-28T06:48:41;8.23;;;4.40;;
44120;SDS011;29783;52.504;13.478;2023-07-28T06:51:08;5.68;;;4.00;;
44120;SDS011;29783;52.504;13.478;2023-07-28T06:53:34;7.75;;;4.15;;
44120;SDS011;29783;52.504;13.478;2023-07-28T06:56:02;6.30;;;3.45;;
44120;SDS011;29783;52.504;13.478;2023-07-28T06:58:28;4.75;;;4.07;;
44120;SDS011;29783;52.504;13.478;2023-07-28T07:00:54;7.03;;;4.15;;
44120;SDS011;29783;52.504;13.478;2023-07-28T07:03:21;8.27;;;3.88;;
44120;SDS011;29783;52.504;13.478;2023-07-28T07:05:48;9.13;;;4.07;;
44120;SDS011;29783;52.504;13.478;2023-07-28T07:08:14;4.07;;;3.55;;
44120;SDS011;29783;52.504;13.478;2023-07-28T07:10:39;3.47;;;3.05;;
44120;SDS011;29783;52.504;13.478;2023-07-28T07:13:05;3.72;;;3.15;;
44120;SDS011;29783;52.504;13.478;2023-07-28T07:15:33;2.40;;;2.20;;
44120;SDS011;29783;52.504;13.478;2023-07-28T07:18:00;4.05;;;2.70;;
44120;SDS011;29783;52.504;13.478;2023-07-28T07:20:26;6.35;;;2.47;;
44120;SDS011;29783;52.504;13.478;2023-07-28T07:22:53;5.07;;;2.17;;
44120;SDS011;29783;52.504;13.478;2023-07-28T07:25:19;3.25;;;1.95;;
44120;SDS011;29783;52.504;13.478;2023-07-28T07:27:45;2.90;;;2.30;;
44120;SDS011;29783;52.504;13.478;2023-07-28T07:30:10;4.72;;;2.25;;
44120;SDS011;29783;52.504;13.478;2023-07-28T07:32:37;1.95;;;1.80;;
44120;SDS011;29783;52.504;13.478;2023-07-28T07:35:05;9.52;;;1.92;;
44120;SDS011;29783;52.504;13.478;2023-07-28T07:37:31;1.98;;;1.58;;
44120;SDS011;29783;52.504;13.478;2023-07-28T07:39:57;3.72;;;1.33;;
44120;SDS011;29783;52.504;13.478;2023-07-28T07:42:25;4.13;;;1.70;;
44120;SDS011;29783;52.504;13.478;2023-07-28T07:44:52;1.90;;;1.48;;
44120;SDS011;29783;52.504;13.478;2023-07-28T08:04:25;2.63;;;0.88;;
44120;SDS011;29783;52.504;13.478;2023-07-28T08:06:53;3.75;;;1.08;;
44120;SDS011;29783;52.504;13.478;2023-07-28T08:09:19;2.28;;;0.90;;
44120;SDS011;29783;52.504;13.478;2023-07-28T08:11:44;2.47;;;0.75;;
44120;SDS011;29783;52.504;13.478;2023-07-28T08:14:10;2.20;;;0.65;;
44120;SDS011;29783;52.504;13.478;2023-07-28T08:16:36;1.35;;;0.75;;
44120;SDS011;29783;52.504;13.478;2023-07-28T08:19:02;1.60;;;0.60;;
44120;SDS011;29783;52.504;13.478;2023-07-28T08:21:27;2.28;;;0.77;;
44120;SDS011;29783;52.504;13.478;2023-07-28T08:23:53;1.92;;;0.70;;
44120;SDS011;29783;52.504;13.478;2023-07-28T08:26:19;0.90;;;0.70;;
44120;SDS011;29783;52.504;13.478;2023-07-28T08:28:44;1.15;;;0.50;;
44120;SDS011;29783;52.504;13.478;2023-07-28T08:31:11;1.10;;;0.55;;
44120;SDS011;29783;52.504;13.478;2023-07-28T08:33:37;1.45;;;0.68;;
44120;SDS011;29783;52.504;13.478;2023-07-28T08:36:02;2.50;;;0.70;;
44120;SDS011;29783;52.504;13.478;2023-07-28T08:38:28;4.43;;;0.65;;
44120;SDS011;29783;52.504;13.478;2023-07-28T08:40:56;1.30;;;0.88;;
44120;SDS011;29783;52.504;13.478;2023-07-28T08:43:23;2.90;;;0.80;;
44120;SDS011;29783;52.504;13.478;2023-07-28T08:45:49;5.05;;;0.90;;
44120;SDS011;29783;52.504;13.478;2023-07-28T09:18:49;2.17;;;0.60;;
44120;SDS011;29783;52.504;13.478;2023-07-28T09:21:19;1.67;;;0.70;;
44120;SDS011;29783;52.504;13.478;2023-07-28T09:23:47;2.45;;;0.60;;
44120;SDS011;29783;52.504;13.478;2023-07-28T09:26:17;2.50;;;0.85;;
44120;SDS011;29783;52.504;13.478;2023-07-28T09:28:46;0.60;;;0.60;;
44120;SDS011;29783;52.504;13.478;2023-07-28T09:31:11;2.92;;;0.70;;
44120;SDS011;29783;52.504;13.478;2023-07-28T09:33:39;4.57;;;0.80;;
44120;SDS011;29783;52.504;13.478;2023-07-28T09:36:12;1.52;;;0.80;;
44120;SDS011;29783;52.504;13.478;2023-07-28T09:38:41;1.90;;;0.98;;
44120;SDS011;29783;52.504;13.478;2023-07-28T09:41:08;0.55;;;0.55;;
44120;SDS011;29783;52.504;13.478;2023-07-28T09:43:39;3.58;;;0.90;;
44120;SDS011;29783;52.504;13.478;2023-07-28T09:46:07;0.90;;;0.73;;
44120;SDS011;29783;52.504;13.478;2023-07-28T09:48:34;0.88;;;0.80;;
44120;SDS011;29783;52.504;13.478;2023-07-28T09:51:05;6.70;;;0.98;;
44120;SDS011;29783;52.504;13.478;2023-07-28T09:53:38;0.93;;;0.60;;
44120;SDS011;29783;52.504;13.478;2023-07-28T09:56:10;1.17;;;0.90;;
44120;SDS011;29783;52.504;13.478;2023-07-28T09:58:39;0.82;;;0.68;;
44120;SDS011;29783;52.504;13.478;2023-07-28T10:01:14;4.80;;;0.88;;
44120;SDS011;29783;52.504;13.478;2023-07-28T10:03:42;6.40;;;1.00;;
44120;SDS011;29783;52.504;13.478;2023-07-28T10:06:08;2.47;;;1.00;;
44120;SDS011;29783;52.504;13.478;2023-07-28T10:08:35;2.67;;;0.70;;
44120;SDS011;29783;52.504;13.478;2023-07-28T10:11:03;1.42;;;0.70;;
44120;SDS011;29783;52.504;13.478;2023-07-28T10:13:39;1.65;;;0.70;;
44120;SDS011;29783;52.504;13.478;2023-07-28T10:16:09;2.70;;;0.88;;
44120;SDS011;29783;52.504;13.478;2023-07-28T10:18:36;0.55;;;0.55;;
44120;SDS011;29783;52.504;13.478;2023-07-28T10:21:05;1.90;;;0.82;;
44120;SDS011;29783;52.504;13.478;2023-07-28T10:23:38;1.15;;;0.90;;
44120;SDS011;29783;52.504;13.478;2023-07-28T10:26:04;1.13;;;1.00;;
44120;SDS011;29783;52.504;13.478;2023-07-28T10:28:39;1.60;;;1.10;;
44120;SDS011;29783;52.504;13.478;2023-07-28T10:31:07;5.90;;;1.00;;
44120;SDS011;29783;52.504;13.478;2023-07-28T10:33:37;1.83;;;1.00;;
44120;SDS011;29783;52.504;13.478;2023-07-28T10:36:47;0.98;;;0.70;;
44120;SDS011;29783;52.504;13.478;2023-07-28T10:39:00;1.48;;;0.98;;
44120;SDS011;29783;52.504;13.478;2023-07-28T10:41:28;1.63;;;0.98;;
44120;SDS011;29783;52.504;13.478;2023-07-28T10:43:58;2.15;;;0.90;;
44120;SDS011;29783;52.504;13.478;2023-07-28T10:46:23;0.90;;;0.90;;
44120;SDS011;29783;52.504;13.478;2023-07-28T10:48:51;2.97;;;1.10;;
44120;SDS011;29783;52.504;13.478;2023-07-28T10:51:27;1.48;;;1.38;;
44120;SDS011;29783;52.504;13.478;2023-07-28T10:53:59;2.25;;;1.30;;
44120;SDS011;29783;52.504;13.478;2023-07-28T10:56:25;2.63;;;1.30;;
44120;SDS011;29783;52.504;13.478;2023-07-28T10:59:01;1.73;;;1.40;;
44120;SDS011;29783;52.504;13.478;2023-07-28T11:06:49;13.88;;;1.42;;
44120;SDS011;29783;52.504;13.478;2023-07-28T11:11:43;5.90;;;1.00;;
44120;SDS011;29783;52.504;13.478;2023-07-28T11:14:10;3.03;;;1.40;;
44120;SDS011;29783;52.504;13.478;2023-07-28T11:16:37;3.22;;;1.05;;
44120;SDS011;29783;52.504;13.478;2023-07-28T11:19:15;5.97;;;1.20;;
44120;SDS011;29783;52.504;13.478;2023-07-28T11:21:42;5.18;;;1.30;;
44120;SDS011;29783;52.504;13.478;2023-07-28T11:24:17;20.42;;;2.03;;
44120;SDS011;29783;52.504;13.478;2023-07-28T11:26:44;9.10;;;1.58;;
44120;SDS011;29783;52.504;13.478;2023-07-28T11:29:13;6.82;;;1.98;;
44120;SDS011;29783;52.504;13.478;2023-07-28T11:31:41;7.00;;;1.70;;
44120;SDS011;29783;52.504;13.478;2023-07-28T11:34:16;5.10;;;1.70;;
44120;SDS011;29783;52.504;13.478;2023-07-28T11:36:43;2.13;;;1.77;;
44120;SDS011;29783;52.504;13.478;2023-07-28T11:39:09;3.88;;;2.30;;
44120;SDS011;29783;52.504;13.478;2023-07-28T11:41:35;2.00;;;1.55;;
44120;SDS011;29783;52.504;13.478;2023-07-28T11:44:02;2.83;;;1.55;;
44120;SDS011;29783;52.504;13.478;2023-07-28T11:46:33;3.30;;;2.30;;
44120;SDS011;29783;52.504;13.478;2023-07-28T12:02:06;3.92;;;2.00;;
44120;SDS011;29783;52.504;13.478;2023-07-28T12:04:36;1.73;;;1.33;;
44120;SDS011;29783;52.504;13.478;2023-07-28T12:07:14;2.85;;;1.42;;
44120;SDS011;29783;52.504;13.478;2023-07-28T12:12:19;1.70;;;1.40;;
44120;SDS011;29783;52.504;13.478;2023-07-28T12:14:46;2.05;;;1.40;;
44120;SDS011;29783;52.504;13.478;2023-07-28T12:17:17;3.25;;;1.60;;
44120;SDS011;29783;52.504;13.478;2023-07-28T12:20:00;1.52;;;1.30;;
44120;SDS011;29783;52.504;13.478;2023-07-28T12:22:39;3.75;;;1.38;;
44120;SDS011;29783;52.504;13.478;2023-07-28T12:25:09;1.13;;;1.03;;
44120;SDS011;29783;52.504;13.478;2023-07-28T12:27:35;1.33;;;1.10;;
44120;SDS011;29783;52.504;13.478;2023-07-28T12:30:02;1.10;;;1.00;;
44120;SDS011;29783;52.504;13.478;2023-07-28T12:32:29;0.90;;;0.90;;
44120;SDS011;29783;52.504;13.478;2023-07-28T12:34:55;1.42;;;0.90;;
44120;SDS011;29783;52.504;13.478;2023-07-28T12:37:22;1.73;;;0.85;;
44120;SDS011;29783;52.504;13.478;2023-07-28T12:39:47;1.52;;;1.08;;
44120;SDS011;29783;52.504;13.478;2023-07-28T12:42:13;1.27;;;1.00;;
44120;SDS011;29783;52.504;13.478;2023-07-28T12:44:39;1.58;;;1.10;;
44120;SDS011;29783;52.504;13.478;2023-07-28T13:30:20;1.60;;;1.00;;
44120;SDS011;29783;52.504;13.478;2023-07-28T13:32:47;1.13;;;0.88;;
44120;SDS011;29783;52.504;13.478;2023-07-28T13:35:13;1.20;;;1.00;;
44120;SDS011;29783;52.504;13.478;2023-07-28T13:37:39;1.50;;;1.10;;
44120;SDS011;29783;52.504;13.478;2023-07-28T13:40:09;2.60;;;1.13;;
44120;SDS011;29783;52.504;13.478;2023-07-28T13:42:34;3.20;;;1.20;;
44120;SDS011;29783;52.504;13.478;2023-07-28T13:45:00;1.20;;;1.10;;
44120;SDS011;29783;52.504;13.478;2023-07-28T13:47:26;1.48;;;1.10;;
44120;SDS011;29783;52.504;13.478;2023-07-28T13:49:52;1.33;;;1.02;;
44120;SDS011;29783;52.504;13.478;2023-07-28T13:52:18;2.00;;;1.42;;
44120;SDS011;29783;52.504;13.478;2023-07-28T13:54:43;2.78;;;1.13;;
44120;SDS011;29783;52.504;13.478;2023-07-28T13:57:11;1.58;;;1.23;;
44120;SDS011;29783;52.504;13.478;2023-07-28T13:59:36;2.70;;;1.10;;
44120;SDS011;29783;52.504;13.478;2023-07-28T14:02:03;4.28;;;1.17;;
44120;SDS011;29783;52.504;13.478;2023-07-28T14:04:28;0.70;;;0.70;;
44120;SDS011;29783;52.504;13.478;2023-07-28T14:06:54;3.10;;;1.67;;
44120;SDS011;29783;52.504;13.478;2023-07-28T14:09:20;3.30;;;1.13;;
44120;SDS011;29783;52.504;13.478;2023-07-28T14:11:46;1.80;;;1.10;;
44120;SDS011;29783;52.504;13.478;2023-07-28T14:14:11;1.98;;;1.15;;
44120;SDS011;29783;52.504;13.478;2023-07-28T14:16:37;1.65;;;1.10;;
44120;SDS011;29783;52.504;13.478;2023-07-28T14:19:03;1.27;;;1.10;;
44120;SDS011;29783;52.504;13.478;2023-07-28T14:21:28;4.47;;;1.05;;
44120;SDS011;29783;52.504;13.478;2023-07-28T14:23:54;1.08;;;0.93;;
44120;SDS011;29783;52.504;13.478;2023-07-28T14:26:20;1.02;;;0.80;;
44120;SDS011;29783;52.504;13.478;2023-07-28T14:28:45;1.15;;;0.95;;
44120;SDS011;29783;52.504;13.478;2023-07-28T14:31:11;1.88;;;0.90;;
44120;SDS011;29783;52.504;13.478;2023-07-28T14:33:37;1.75;;;0.90;;
44120;SDS011;29783;52.504;13.478;2023-07-28T14:36:02;0.93;;;0.60;;
44120;SDS011;29783;52.504;13.478;2023-07-28T14:38:28;5.75;;;0.80;;
44120;SDS011;29783;52.504;13.478;2023-07-28T14:40:54;1.50;;;0.80;;
44120;SDS011;29783;52.504;13.478;2023-07-28T14:43:19;1.35;;;0.70;;
44120;SDS011;29783;52.504;13.478;2023-07-28T14:45:45;1.80;;;0.80;;
44120;SDS011;29783;52.504;13.478;2023-07-28T15:03:04;1.13;;;0.60;;
44120;SDS011;29783;52.504;13.478;2023-07-28T15:05:29;3.15;;;0.80;;
44120;SDS011;29783;52.504;13.478;2023-07-28T15:07:55;0.88;;;0.50;;
44120;SDS011;29783;52.504;13.478;2023-07-28T15:10:22;1.80;;;0.70;;
44120;SDS011;29783;52.504;13.478;2023-07-28T15:12:47;0.70;;;0.50;;
44120;SDS011;29783;52.504;13.478;2023-07-28T15:15:13;1.23;;;0.80;;
44120;SDS011;29783;52.504;13.478;2023-07-28T15:17:40;0.70;;;0.68;;
44120;SDS011;29783;52.504;13.478;2023-07-28T15:20:06;0.88;;;0.47;;
44120;SDS011;29783;52.504;13.478;2023-07-28T15:22:31;4.22;;;0.80;;
44120;SDS011;29783;52.504;13.478;2023-07-28T15:24:59;1.15;;;0.70;;
44120;SDS011;29783;52.504;13.478;2023-07-28T15:27:25;0.65;;;0.65;;
44120;SDS011;29783;52.504;13.478;2023-07-28T15:29:51;1.25;;;0.70;;
44120;SDS011;29783;52.504;13.478;2023-07-28T15:32:16;0.95;;;0.60;;
44120;SDS011;29783;52.504;13.478;2023-07-28T15:34:45;5.95;;;0.88;;
44120;SDS011;29783;52.504;13.478;2023-07-28T15:37:10;1.17;;;0.70;;
44120;SDS011;29783;52.504;13.478;2023-07-28T15:39:37;9.88;;;0.80;;
44120;SDS011;29783;52.504;13.478;2023-07-28T15:42:03;2.25;;;0.80;;
44120;SDS011;29783;52.504;13.478;2023-07-28T15:44:30;1.27;;;0.85;;
44120;SDS011;29783;52.504;13.478;2023-07-28T15:46:56;1.30;;;0.80;;
44120;SDS011;29783;52.504;13.478;2023-07-28T15:49:21;1.70;;;0.85;;
44120;SDS011;29783;52.504;13.478;2023-07-28T15:51:50;1.15;;;0.90;;
44120;SDS011;29783;52.504;13.478;2023-07-28T15:54:16;1.35;;;1.00;;
44120;SDS011;29783;52.504;13.478;2023-07-28T15:56:46;1.10;;;0.82;;
44120;SDS011;29783;52.504;13.478;2023-07-28T15:59:11;1.52;;;1.00;;
44120;SDS011;29783;52.504;13.478;2023-07-28T16:01:37;2.08;;;1.00;;
44120;SDS011;29783;52.504;13.478;2023-07-28T16:04:03;4.68;;;0.93;;
44120;SDS011;29783;52.504;13.478;2023-07-28T16:06:29;1.85;;;1.08;;
44120;SDS011;29783;52.504;13.478;2023-07-28T16:08:55;1.40;;;1.00;;
44120;SDS011;29783;52.504;13.478;2023-07-28T16:11:21;4.30;;;1.10;;
44120;SDS011;29783;52.504;13.478;2023-07-28T16:13:46;2.03;;;1.38;;
44120;SDS011;29783;52.504;13.478;2023-07-28T16:16:12;3.88;;;1.20;;
44120;SDS011;29783;52.504;13.478;2023-07-28T16:18:38;1.77;;;1.17;;
44120;SDS011;29783;52.504;13.478;2023-07-28T16:21:03;1.35;;;1.05;;
44120;SDS011;29783;52.504;13.478;2023-07-28T16:23:29;1.27;;;1.17;;
44120;SDS011;29783;52.504;13.478;2023-07-28T16:25:54;4.07;;;1.50;;
44120;SDS011;29783;52.504;13.478;2023-07-28T16:28:20;1.80;;;1.42;;
44120;SDS011;29783;52.504;13.478;2023-07-28T16:30:46;3.10;;;1.50;;
44120;SDS011;29783;52.504;13.478;2023-07-28T16:33:13;3.90;;;1.33;;
44120;SDS011;29783;52.504;13.478;2023-07-28T16:35:39;1.38;;;1.27;;
44120;SDS011;29783;52.504;13.478;2023-07-28T16:38:08;4.97;;;1.52;;
44120;SDS011;29783;52.504;13.478;2023-07-28T16:40:34;1.52;;;1.42;;
44120;SDS011;29783;52.504;13.478;2023-07-28T16:43:00;1.85;;;1.60;;
44120;SDS011;29783;52.504;13.478;2023-07-28T16:45:25;2.70;;;1.83;;
44120;SDS011;29783;52.504;13.478;2023-07-28T16:47:51;6.00;;;2.10;;
44120;SDS011;29783;52.504;13.478;2023-07-28T16:50:17;3.42;;;1.77;;
44120;SDS011;29783;52.504;13.478;2023-07-28T16:52:43;2.28;;;1.67;;
44120;SDS011;29783;52.504;13.478;2023-07-28T16:55:11;2.85;;;2.38;;
44120;SDS011;29783;52.504;13.478;2023-07-28T16:57:36;2.83;;;1.50;;
44120;SDS011;29783;52.504;13.478;2023-07-28T17:00:02;1.63;;;1.50;;
44120;SDS011;29783;52.504;13.478;2023-07-28T17:02:28;3.65;;;1.63;;
44120;SDS011;29783;52.504;13.478;2023-07-28T17:04:54;2.83;;;1.60;;
44120;SDS011;29783;52.504;13.478;2023-07-28T17:07:19;8.50;;;2.10;;
44120;SDS011;29783;52.504;13.478;2023-07-28T17:09:45;3.80;;;1.80;;
44120;SDS011;29783;52.504;13.478;2023-07-28T17:12:12;3.65;;;1.88;;
44120;SDS011;29783;52.504;13.478;2023-07-28T17:14:39;4.38;;;2.05;;
44120;SDS011;29783;52.504;13.478;2023-07-28T17:17:05;4.15;;;2.30;;
44120;SDS011;29783;52.504;13.478;2023-07-28T17:19:30;3.78;;;1.70;;
44120;SDS011;29783;52.504;13.478;2023-07-28T17:21:56;2.58;;;2.38;;
44120;SDS011;29783;52.504;13.478;2023-07-28T17:24:23;2.85;;;1.98;;
44120;SDS011;29783;52.504;13.478;2023-07-28T17:26:49;6.70;;;1.83;;
44120;SDS011;29783;52.504;13.478;2023-07-28T17:29:14;9.18;;;1.90;;
44120;SDS011;29783;52.504;13.478;2023-07-28T17:31:40;4.35;;;2.20;;
44120;SDS011;29783;52.504;13.478;2023-07-28T17:34:06;4.20;;;2.10;;